Time;durP1;ratioP1;P1;durP2;ratioP2;P2;SDS_P1;SDS_P2;PMS_P1;PMS_P2;Temp;Humidity;BMP_temperature;BMP_pressure;BME280_temperature;BME280_humidity;BME280_pressure;Samples;Min_cycle;Max_cycle;Signal;HPM_P1;HPM_P2
2022/08/03 00:00:06;;;;;;;;;;;;;;;18.72;86.19;99589.47;4994066;28;811;-64
2022/08/03 00:02:32;;;;;;;;;;;;;;;18.65;86.35;99592.53;4994091;28;824;-64
2022/08/03 00:04:59;;;;;;;;;;;;;;;18.62;86.45;99594.25;4993947;28;887;-64
2022/08/03 00:07:25;;;;;;;;;;;;;;;18.63;86.56;99581.06;4993897;28;898;-64
2022/08/03 00:09:52;;;;;;;;;;;;;;;18.62;86.68;99587.88;4976350;28;1182;-64
2022/08/03 00:12:19;;;;;;;;;;;;;;;18.53;86.81;99588.63;4993834;28;1949;-64
2022/08/03 00:14:46;;;;;;;;;;;;;;;18.40;87.13;99587.97;4993695;28;843;-64
2022/08/03 00:17:12;;;;;;;;;;;;;;;18.35;87.22;99592.94;4993744;28;811;-64
2022/08/03 00:19:38;;;;;;;;;;;;;;;18.33;87.31;99586.25;4993548;28;929;-64
2022/08/03 00:22:04;;;;;;;;;;;;;;;18.38;86.73;99596.06;4993655;28;839;-64
2022/08/03 00:24:31;;;;;;;;;;;;;;;18.41;86.10;99592.31;4993585;28;878;-64
2022/08/03 00:26:57;;;;;;;;;;;;;;;18.41;85.60;99592.31;4993681;28;839;-65
2022/08/03 00:29:24;;;;;;;;;;;;;;;18.34;85.31;99585.00;4993456;28;807;-65
2022/08/03 00:31:51;;;;;;;;;;;;;;;18.28;84.90;99586.84;4993487;28;1890;-64
2022/08/03 00:34:17;;;;;;;;;;;;;;;18.17;84.99;99584.47;4993435;28;811;-64
2022/08/03 00:36:44;;;;;;;;;;;;;;;18.08;85.31;99590.81;4993160;28;1449;-64
2022/08/03 00:39:10;;;;;;;;;;;;;;;17.99;85.37;99589.97;4975860;28;1304;-64
2022/08/03 00:41:37;;;;;;;;;;;;;;;17.87;85.76;99588.84;4993295;28;816;-64
2022/08/03 00:44:03;;;;;;;;;;;;;;;17.75;85.93;99587.66;4993222;28;855;-64
2022/08/03 00:46:29;;;;;;;;;;;;;;;17.70;86.20;99588.25;4993128;28;866;-64
2022/08/03 00:48:56;;;;;;;;;;;;;;;17.74;86.57;99594.47;4975645;28;1213;-64
2022/08/03 00:51:23;;;;;;;;;;;;;;;17.80;86.80;99589.88;4992910;28;1913;-64
2022/08/03 00:53:49;;;;;;;;;;;;;;;18.02;87.73;99589.06;4993035;28;807;-64
2022/08/03 00:56:16;;;;;;;;;;;;;;;18.27;88.06;99590.91;4993226;28;887;-64
2022/08/03 00:58:46;;;;;;;;;;;;;;;18.46;88.09;99588.94;4992909;28;913;-64
2022/08/03 01:01:13;;;;;;;;;;;;;;;18.57;88.08;99592.06;4993232;28;843;-64
2022/08/03 01:03:40;;;;;;;;;;;;;;;18.69;88.13;99588.38;4992840;28;865;-64
2022/08/03 01:06:16;;;;;;;;;;;;;;;18.81;88.03;99589.50;4993003;28;890;-64
2022/08/03 01:08:52;;;;;;;;;;;;;;;18.90;88.03;99591.53;4975246;28;1326;-64
2022/08/03 01:11:18;;;;;;;;;;;;;;;18.98;88.04;99593.56;4975170;28;1886;-64
2022/08/03 01:14:06;;;;;;;;;;;;;;;19.08;87.94;99591.56;4992803;28;898;-64
2022/08/03 01:16:44;;;;;;;;;;;;;;;19.21;87.76;99594.19;4992811;28;791;-64
2022/08/03 01:19:13;;;;;;;;;;;;;;;19.27;87.67;99591.56;4992525;28;803;-64
2022/08/03 01:21:46;;;;;;;;;;;;;;;19.33;87.34;99590.47;4992535;28;858;-64
2022/08/03 01:24:13;;;;;;;;;;;;;;;19.39;87.04;99590.59;4992691;28;800;-64
2022/08/03 01:26:54;;;;;;;;;;;;;;;19.42;86.95;99589.69;4992976;28;763;-64
2022/08/03 01:29:36;;;;;;;;;;;;;;;19.48;86.54;99590.59;4992508;28;917;-65
2022/08/03 01:32:11;;;;;;;;;;;;;;;19.54;86.19;99585.13;4992571;28;1945;-64
2022/08/03 01:34:42;;;;;;;;;;;;;;;19.56;86.04;99586.22;4974965;28;1206;-64
2022/08/03 01:37:09;;;;;;;;;;;;;;;19.56;85.91;99572.19;4992226;28;1183;-64
2022/08/03 01:39:37;;;;;;;;;;;;;;;19.55;85.75;99578.28;4992342;28;886;-64
2022/08/03 01:42:05;;;;;;;;;;;;;;;19.54;85.87;99579.53;4975289;28;1218;-64
2022/08/03 01:44:40;;;;;;;;;;;;;;;19.58;85.70;99577.34;4992515;28;906;-64
2022/08/03 01:47:09;;;;;;;;;;;;;;;19.60;85.57;99577.66;4992212;28;855;-64
2022/08/03 01:49:37;;;;;;;;;;;;;;;19.64;85.23;99578.25;4992541;28;851;-64
2022/08/03 01:52:05;;;;;;;;;;;;;;;19.63;85.13;99575.91;4992340;28;1910;-64
2022/08/03 01:54:39;;;;;;;;;;;;;;;19.59;85.02;99578.91;4992202;28;859;-64
2022/08/03 01:57:07;;;;;;;;;;;;;;;19.52;85.14;99582.81;4993386;28;898;-64
2022/08/03 01:59:35;;;;;;;;;;;;;;;19.46;85.23;99573.47;4999273;28;818;-64
2022/08/03 02:02:03;;;;;;;;;;;;;;;19.42;85.36;99577.69;4998875;28;819;-64
2022/08/03 02:04:30;;;;;;;;;;;;;;;19.40;85.39;99580.19;4998928;28;847;-64
2022/08/03 02:06:57;;;;;;;;;;;;;;;19.41;85.22;99584.53;4981243;28;1214;-64
2022/08/03 02:09:24;;;;;;;;;;;;;;;19.45;84.80;99585.16;4998822;28;796;-65
2022/08/03 02:11:52;;;;;;;;;;;;;;;19.52;84.27;99574.41;4998608;28;1886;-64
2022/08/03 02:14:19;;;;;;;;;;;;;;;19.61;83.43;99576.41;4998562;28;847;-64
2022/08/03 02:16:46;;;;;;;;;;;;;;;19.63;83.19;99582.31;4998449;28;873;-65
2022/08/03 02:22:15;;;;;;;;;;;;;;;19.70;82.13;99587.63;4998550;28;626;-64
2022/08/03 02:24:42;;;;;;;;;;;;;;;19.73;81.70;99583.09;4998378;28;815;-65
2022/08/03 02:27:24;;;;;;;;;;;;;;;19.74;81.42;99593.09;4998433;28;847;-64
2022/08/03 02:30:02;;;;;;;;;;;;;;;19.74;80.99;99579.84;4998409;28;875;-65
2022/08/03 02:32:33;;;;;;;;;;;;;;;19.74;80.81;99582.63;4998951;28;1887;-64
2022/08/03 02:35:00;;;;;;;;;;;;;;;19.72;80.44;99589.97;4998359;28;815;-64
2022/08/03 02:37:30;;;;;;;;;;;;;;;19.70;80.52;99584.81;4998298;28;1251;-64
2022/08/03 02:39:59;;;;;;;;;;;;;;;19.69;80.24;99596.47;4998242;28;878;-65
2022/08/03 02:42:26;;;;;;;;;;;;;;;19.69;79.95;99588.84;4980816;28;1170;-64
2022/08/03 02:44:54;;;;;;;;;;;;;;;19.69;79.88;99585.25;4998181;28;882;-64
2022/08/03 02:47:21;;;;;;;;;;;;;;;19.64;79.87;99594.31;4998176;28;862;-64
2022/08/03 02:49:50;;;;;;;;;;;;;;;19.60;79.92;99588.84;4980624;28;1226;-64
2022/08/03 02:52:18;;;;;;;;;;;;;;;19.55;79.95;99595.09;4998097;28;1975;-64
2022/08/03 02:54:47;;;;;;;;;;;;;;;19.53;80.02;99592.00;4980617;28;1266;-64
2022/08/03 02:57:14;;;;;;;;;;;;;;;19.52;80.01;99602.44;4998121;28;803;-64
2022/08/03 02:59:41;;;;;;;;;;;;;;;19.54;79.81;99599.16;4998050;28;827;-64
2022/08/03 03:02:09;;;;;;;;;;;;;;;19.54;79.59;99597.13;4998109;28;827;-65
2022/08/03 03:04:35;;;;;;;;;;;;;;;19.55;79.47;99592.31;4980605;28;1317;-64
2022/08/03 03:07:02;;;;;;;;;;;;;;;19.52;79.39;99590.44;4997997;28;886;-64
2022/08/03 03:09:29;;;;;;;;;;;;;;;19.50;79.14;99592.91;4994988;28;811;-64
2022/08/03 03:11:56;;;;;;;;;;;;;;;19.49;79.18;99588.56;4994894;28;1886;-64
2022/08/03 03:14:23;;;;;;;;;;;;;;;19.44;79.17;99592.00;4995103;28;885;-64
2022/08/03 03:16:51;;;;;;;;;;;;;;;19.43;79.16;99596.06;4995047;28;799;-64
2022/08/03 03:19:18;;;;;;;;;;;;;;;19.40;78.96;99594.97;4994908;28;847;-64
2022/08/03 03:21:45;;;;;;;;;;;;;;;19.38;78.88;99595.44;4994749;28;864;-64
2022/08/03 03:24:12;;;;;;;;;;;;;;;19.40;78.53;99594.97;4994790;28;850;-64
2022/08/03 03:26:38;;;;;;;;;;;;;;;19.44;78.17;99597.59;4994646;28;866;-64
2022/08/03 03:29:06;;;;;;;;;;;;;;;19.48;77.70;99592.59;4994637;28;822;-64
2022/08/03 03:31:34;;;;;;;;;;;;;;;19.51;77.33;99598.06;4994575;28;1949;-64
2022/08/03 03:34:00;;;;;;;;;;;;;;;19.52;76.94;99596.84;4994504;28;870;-64
2022/08/03 03:36:27;;;;;;;;;;;;;;;19.54;76.69;99599.16;4994375;28;1282;-64
2022/08/03 03:38:54;;;;;;;;;;;;;;;19.57;76.26;99601.03;4994472;28;839;-64
2022/08/03 03:41:20;;;;;;;;;;;;;;;19.60;75.98;99602.88;4994628;28;819;-64
2022/08/03 03:43:48;;;;;;;;;;;;;;;19.65;75.60;99601.47;4994414;28;870;-64
2022/08/03 03:46:15;;;;;;;;;;;;;;;19.70;75.35;99607.25;4994188;28;827;-64
2022/08/03 03:48:41;;;;;;;;;;;;;;;19.73;75.15;99597.88;4994299;28;846;-64
2022/08/03 03:51:08;;;;;;;;;;;;;;;19.81;74.82;99600.38;4994083;28;1906;-64
2022/08/03 03:53:35;;;;;;;;;;;;;;;19.93;73.98;99602.22;4994347;28;867;-64
2022/08/03 03:56:02;;;;;;;;;;;;;;;20.05;73.38;99606.06;4994109;28;831;-64
2022/08/03 03:58:29;;;;;;;;;;;;;;;20.13;73.01;99607.28;4994401;28;796;-64
2022/08/03 04:00:55;;;;;;;;;;;;;;;20.21;72.50;99602.91;4994048;28;828;-64
2022/08/03 04:03:22;;;;;;;;;;;;;;;20.29;71.90;99600.50;4994025;28;812;-64
2022/08/03 04:11:21;;;;;;;;;;;;;;;20.56;71.00;99613.66;4993874;28;1992;-64
2022/08/03 04:13:57;;;;;;;;;;;;;;;20.64;70.42;99611.31;4993750;28;862;-64
2022/08/03 04:16:27;;;;;;;;;;;;;;;20.74;70.33;99615.59;4993679;28;830;-64
2022/08/03 04:19:15;;;;;;;;;;;;;;;20.83;70.07;99611.97;4993865;28;870;-64
2022/08/03 04:21:43;;;;;;;;;;;;;;;20.95;69.39;99619.38;4993540;28;859;-64
2022/08/03 04:24:10;;;;;;;;;;;;;;;21.07;69.16;99623.19;4993649;28;796;-64
2022/08/03 04:26:39;;;;;;;;;;;;;;;21.19;68.39;99627.78;4993600;28;832;-63
2022/08/03 04:29:06;;;;;;;;;;;;;;;21.30;67.99;99619.59;4993580;28;834;-64
2022/08/03 04:31:34;;;;;;;;;;;;;;;21.45;67.31;99621.69;4993647;28;1947;-64
2022/08/03 04:34:01;;;;;;;;;;;;;;;21.57;66.60;99626.22;4993462;28;792;-64
2022/08/03 04:36:30;;;;;;;;;;;;;;;21.69;66.27;99616.75;4993213;28;1383;-63
2022/08/03 04:39:02;;;;;;;;;;;;;;;21.80;65.29;99625.38;4993319;28;827;-63
2022/08/03 04:41:30;;;;;;;;;;;;;;;21.92;64.83;99629.19;4993335;28;791;-63
2022/08/03 04:43:59;;;;;;;;;;;;;;;22.02;64.07;99627.81;4975663;28;1298;-64
2022/08/03 04:46:31;;;;;;;;;;;;;;;22.11;62.93;99629.75;4993146;28;866;-64
2022/08/03 04:48:59;;;;;;;;;;;;;;;22.21;62.36;99628.38;4993593;28;764;-64
2022/08/03 04:51:25;;;;;;;;;;;;;;;22.34;61.97;99627.31;4993215;28;1910;-64
2022/08/03 04:53:51;;;;;;;;;;;;;;;22.54;61.05;99630.19;4993155;28;855;-64
2022/08/03 04:56:19;;;;;;;;;;;;;;;22.75;59.76;99628.19;4992975;28;887;-63
2022/08/03 04:58:46;;;;;;;;;;;;;;;23.04;57.87;99632.16;4993696;28;827;-65
2022/08/03 05:01:12;;;;;;;;;;;;;;;23.07;57.52;99636.84;4992889;28;843;-64
2022/08/03 05:03:39;;;;;;;;;;;;;;;23.01;57.39;99639.56;4992928;28;816;-64
2022/08/03 05:06:06;;;;;;;;;;;;;;;23.01;58.11;99633.94;4993014;28;788;-64
2022/08/03 05:08:33;;;;;;;;;;;;;;;23.08;57.87;99629.16;4992753;28;834;-64
2022/08/03 05:10:59;;;;;;;;;;;;;;;23.13;58.17;99629.22;4992783;28;807;-64
2022/08/03 05:13:26;;;;;;;;;;;;;;;23.21;57.94;99629.56;4992609;28;1886;-63
2022/08/03 05:15:53;;;;;;;;;;;;;;;23.22;57.01;99631.88;4992743;28;866;-63
2022/08/03 05:18:19;;;;;;;;;;;;;;;23.32;56.99;99637.38;4992666;28;827;-64
2022/08/03 05:20:46;;;;;;;;;;;;;;;23.37;56.32;99639.50;4992612;28;814;-63
2022/08/03 05:23:13;;;;;;;;;;;;;;;23.43;56.26;99631.88;4992583;28;885;-63
2022/08/03 05:25:40;;;;;;;;;;;;;;;23.57;56.00;99635.84;4992597;28;776;-63
2022/08/03 05:28:06;;;;;;;;;;;;;;;23.68;55.22;99644.44;4992517;28;855;-63
2022/08/03 05:30:34;;;;;;;;;;;;;;;23.84;54.83;99648.75;4992500;28;811;-63
2022/08/03 05:33:03;;;;;;;;;;;;;;;24.10;54.23;99645.88;4992081;28;1890;-63
2022/08/03 05:35:30;;;;;;;;;;;;;;;24.21;53.71;99643.16;4992649;28;787;-64
2022/08/03 05:37:57;;;;;;;;;;;;;;;24.36;52.58;99650.72;4992234;28;1264;-62
2022/08/03 05:40:23;;;;;;;;;;;;;;;24.46;52.46;99652.06;4974858;28;1292;-63
2022/08/03 05:42:50;;;;;;;;;;;;;;;24.69;51.91;99658.69;4992145;28;788;-63
2022/08/03 05:45:17;;;;;;;;;;;;;;;25.41;50.26;99651.88;4992277;28;906;-63
2022/08/03 05:47:44;;;;;;;;;;;;;;;26.55;47.27;99647.09;4992238;28;847;-63
2022/08/03 05:50:11;;;;;;;;;;;;;;;27.35;44.61;99646.34;4992167;28;796;-63
2022/08/03 05:52:38;;;;;;;;;;;;;;;27.93;43.22;99651.22;4992157;28;1918;-64
2022/08/03 05:55:06;;;;;;;;;;;;;;;28.67;41.82;99643.59;4992134;28;832;-63
2022/08/03 05:57:33;;;;;;;;;;;;;;;28.99;39.95;99648.69;4992100;28;800;-63
2022/08/03 06:00:08;;;;;;;;;;;;;;;29.16;39.68;99644.91;4992061;28;855;-63
2022/08/03 06:02:35;;;;;;;;;;;;;;;29.40;38.93;99644.84;4992106;28;994;-63
2022/08/03 06:05:04;;;;;;;;;;;;;;;29.62;38.42;99651.53;4992106;28;836;-63
2022/08/03 06:07:31;;;;;;;;;;;;;;;29.28;38.13;99652.00;4992135;28;819;-63
2022/08/03 06:09:57;;;;;;;;;;;;;;;29.35;37.46;99651.38;4992137;28;824;-63
2022/08/03 06:12:24;;;;;;;;;;;;;;;30.05;36.83;99644.97;4992020;28;1949;-64
2022/08/03 06:14:51;;;;;;;;;;;;;;;30.23;35.89;99646.22;4992037;28;926;-63
2022/08/03 06:17:18;;;;;;;;;;;;;;;30.12;35.32;99647.16;4991916;28;831;-63
2022/08/03 06:19:45;;;;;;;;;;;;;;;29.95;35.82;99649.53;4992036;28;792;-65
2022/08/03 06:22:12;;;;;;;;;;;;;;;30.10;35.43;99655.50;4991926;28;886;-64
2022/08/03 06:24:39;;;;;;;;;;;;;;;30.37;34.95;99658.47;4974453;28;1490;-64
2022/08/03 06:27:05;;;;;;;;;;;;;;;30.49;34.52;99662.63;4991844;28;836;-62
2022/08/03 06:29:32;;;;;;;;;;;;;;;31.06;34.45;99650.97;4991824;28;942;-63
2022/08/03 06:31:59;;;;;;;;;;;;;;;31.68;33.01;99658.22;4991951;28;1878;-61
2022/08/03 06:34:25;;;;;;;;;;;;;;;31.32;32.56;99655.84;4991904;28;796;-64
2022/08/03 06:36:53;;;;;;;;;;;;;;;31.29;32.48;99657.72;4991535;28;1271;-62
2022/08/03 06:39:23;;;;;;;;;;;;;;;31.29;32.80;99662.69;4991844;28;843;-64
2022/08/03 06:41:50;;;;;;;;;;;;;;;31.62;31.60;99669.00;4991892;28;795;-63
2022/08/03 06:44:16;;;;;;;;;;;;;;;31.75;32.02;99674.69;4993794;28;823;-63
2022/08/03 06:46:43;;;;;;;;;;;;;;;31.60;31.81;99668.78;4995506;28;815;-63
2022/08/03 06:49:10;;;;;;;;;;;;;;;31.73;32.19;99675.25;4995336;28;902;-63
2022/08/03 06:51:36;;;;;;;;;;;;;;;32.05;31.06;99664.91;4995314;28;1965;-62
2022/08/03 06:54:03;;;;;;;;;;;;;;;32.38;31.35;99665.41;4995315;28;824;-63
2022/08/03 06:56:29;;;;;;;;;;;;;;;32.95;30.44;99676.91;4995285;28;812;-63
2022/08/03 06:58:55;;;;;;;;;;;;;;;32.91;29.00;99679.38;4995223;28;832;-63
2022/08/03 07:01:22;;;;;;;;;;;;;;;32.73;29.46;99669.69;4995237;28;815;-63
2022/08/03 07:03:49;;;;;;;;;;;;;;;33.05;29.47;99668.56;4995111;28;855;-62
2022/08/03 07:06:18;;;;;;;;;;;;;;;33.27;29.18;99675.78;4995154;28;866;-64
2022/08/03 07:08:45;;;;;;;;;;;;;;;32.79;29.25;99675.28;4995066;28;838;-62
2022/08/03 07:11:15;;;;;;;;;;;;;;;33.05;29.56;99662.84;4994821;28;1906;-64
2022/08/03 07:13:42;;;;;;;;;;;;;;;33.20;29.67;99676.50;4995002;28;894;-63
2022/08/03 07:16:10;;;;;;;;;;;;;;;33.43;29.14;99676.63;4994916;28;869;-63
2022/08/03 07:18:40;;;;;;;;;;;;;;;33.95;28.08;99683.13;4994853;28;815;-62
2022/08/03 07:21:08;;;;;;;;;;;;;;;33.84;28.39;99675.66;4995017;28;803;-63
2022/08/03 07:23:35;;;;;;;;;;;;;;;33.36;28.72;99678.88;4994840;28;878;-64
2022/08/03 07:26:01;;;;;;;;;;;;;;;33.19;29.42;99686.44;4994643;28;843;-63
2022/08/03 07:28:28;;;;;;;;;;;;;;;33.48;28.93;99676.44;4994735;28;811;-64
2022/08/03 07:30:55;;;;;;;;;;;;;;;33.92;28.15;99685.00;4994630;28;839;-63
2022/08/03 07:33:22;;;;;;;;;;;;;;;33.69;28.20;99687.84;4994761;28;1957;-64
2022/08/03 07:35:48;;;;;;;;;;;;;;;33.82;28.64;99689.78;4994515;28;887;-63
2022/08/03 07:38:15;;;;;;;;;;;;;;;35.08;27.64;99685.81;4994350;28;1267;-64
2022/08/03 07:40:43;;;;;;;;;;;;;;;35.80;26.34;99682.88;4994406;28;819;-63
2022/08/03 07:43:10;;;;;;;;;;;;;;;35.69;25.73;99690.59;4994406;28;827;-64
2022/08/03 07:45:53;;;;;;;;;;;;;;;34.67;26.65;99695.63;4994353;28;804;-64
2022/08/03 07:48:20;;;;;;;;;;;;;;;34.14;27.52;99691.38;4994373;28;823;-64
2022/08/03 07:53:49;;;;;;;;;;;;;;;35.54;25.94;99682.78;4994339;28;638;-63
2022/08/03 07:56:15;;;;;;;;;;;;;;;35.71;25.67;99701.53;4993759;28;804;-63
2022/08/03 07:58:42;;;;;;;;;;;;;;;35.21;25.39;99686.94;4994308;28;823;-64
2022/08/03 08:01:09;;;;;;;;;;;;;;;34.65;25.70;99698.31;4994198;28;800;-64
2022/08/03 08:03:35;;;;;;;;;;;;;;;34.30;26.53;99695.78;4976864;28;1181;-64
2022/08/03 08:06:05;;;;;;;;;;;;;;;34.46;26.68;99692.94;4994513;28;811;-64
2022/08/03 08:08:35;;;;;;;;;;;;;;;33.90;26.78;99704.88;4993971;28;1155;-65
2022/08/03 08:11:01;;;;;;;;;;;;;;;34.19;26.89;99710.50;4993856;28;847;-65
2022/08/03 08:13:32;;;;;;;;;;;;;;;34.16;27.09;99708.78;4993811;28;1882;-63
2022/08/03 08:15:58;;;;;;;;;;;;;;;34.15;27.19;99707.25;4994008;28;815;-64
2022/08/03 08:18:28;;;;;;;;;;;;;;;34.82;26.26;99698.47;4993919;28;839;-63
2022/08/03 08:20:55;;;;;;;;;;;;;;;35.04;26.21;99708.41;4993768;28;815;-63
2022/08/03 08:23:24;;;;;;;;;;;;;;;34.55;25.51;99703.84;4993673;28;816;-63
2022/08/03 08:25:51;;;;;;;;;;;;;;;34.70;26.01;99695.25;4993575;28;867;-65
2022/08/03 08:28:21;;;;;;;;;;;;;;;34.25;25.81;99696.75;4993681;28;846;-63
2022/08/03 08:30:49;;;;;;;;;;;;;;;34.11;26.52;99703.97;4993681;28;851;-63
2022/08/03 08:33:16;;;;;;;;;;;;;;;33.96;26.15;99690.38;4993775;28;1981;-64
2022/08/03 08:35:42;;;;;;;;;;;;;;;34.09;26.43;99686.56;4993467;28;878;-64
2022/08/03 08:38:09;;;;;;;;;;;;;;;34.99;25.69;99680.66;4993415;28;1230;-63
2022/08/03 08:40:36;;;;;;;;;;;;;;;35.42;25.96;99693.22;4993255;28;866;-64
2022/08/03 08:43:03;;;;;;;;;;;;;;;34.98;25.19;99679.91;4993277;28;863;-64
2022/08/03 08:45:30;;;;;;;;;;;;;;;34.49;26.33;99694.66;4993232;28;831;-64
2022/08/03 08:48:01;;;;;;;;;;;;;;;33.68;26.90;99694.13;4993451;28;808;-64
2022/08/03 08:50:28;;;;;;;;;;;;;;;33.56;27.80;99690.78;4993525;28;799;-64
2022/08/03 08:52:55;;;;;;;;;;;;;;;33.51;26.94;99697.47;4993026;28;1985;-64
2022/08/03 08:55:22;;;;;;;;;;;;;;;32.99;27.14;99699.44;4993159;28;887;-64
2022/08/03 09:01:05;;;;;;;;;;;;;;;33.19;27.08;99703.63;4967508;28;1117;-63
2022/08/03 09:03:32;;;;;;;;;;;;;;;33.20;27.21;99703.03;4993174;28;799;-65
2022/08/03 09:06:00;;;;;;;;;;;;;;;33.20;27.26;99693.69;4992827;28;808;-64
2022/08/03 09:08:29;;;;;;;;;;;;;;;33.23;27.53;99684.72;4992046;28;823;-64
2022/08/03 09:10:55;;;;;;;;;;;;;;;33.31;27.24;99687.66;4992695;28;920;-64
2022/08/03 09:13:22;;;;;;;;;;;;;;;33.92;26.97;99682.13;4992693;28;1903;-64
2022/08/03 09:16:08;;;;;;;;;;;;;;;34.39;26.23;99673.63;4992929;28;795;-63
2022/08/03 09:18:35;;;;;;;;;;;;;;;34.18;26.50;99683.16;4975173;28;1349;-63
2022/08/03 09:21:16;;;;;;;;;;;;;;;34.11;26.98;99678.16;4992624;28;867;-63
2022/08/03 09:23:51;;;;;;;;;;;;;;;33.96;26.59;99664.56;4975232;28;1261;-63
2022/08/03 09:26:35;;;;;;;;;;;;;;;33.74;26.75;99675.41;4975152;28;1388;-62
2022/08/03 09:29:04;;;;;;;;;;;;;;;33.53;28.18;99669.03;4992550;28;800;-65
2022/08/03 09:31:35;;;;;;;;;;;;;;;33.56;26.96;99671.53;4992398;28;1945;-64
2022/08/03 09:34:06;;;;;;;;;;;;;;;32.87;27.75;99664.66;4992474;28;859;-64
2022/08/03 09:36:47;;;;;;;;;;;;;;;32.27;28.29;99666.47;4992133;28;1224;-63
2022/08/03 09:39:15;;;;;;;;;;;;;;;31.93;28.81;99659.44;4992502;28;788;-65
2022/08/03 09:41:45;;;;;;;;;;;;;;;31.99;29.46;99670.78;4992419;28;906;-63
2022/08/03 09:56:36;;;;;;;;;;;;;;;31.73;29.63;99671.63;4992594;28;618;-63
2022/08/03 09:59:02;;;;;;;;;;;;;;;31.84;29.47;99667.75;4992240;28;799;-66
2022/08/03 10:01:32;;;;;;;;;;;;;;;31.78;28.88;99665.00;4992083;28;843;-65
2022/08/03 10:35:28;;;;;;;;;;;;;;;33.15;27.02;99618.06;4976363;28;621;-68
2022/08/03 10:37:57;;;;;;;;;;;;;;;32.59;27.04;99628.25;4976315;28;906;-67
2022/08/03 10:40:28;;;;;;;;;;;;;;;31.43;28.14;99624.25;4976210;28;807;-67
2022/08/03 10:42:57;;;;;;;;;;;;;;;31.55;28.54;99627.63;4976082;28;1120;-66
2022/08/03 10:45:29;;;;;;;;;;;;;;;31.82;27.83;99618.97;4976116;28;811;-68
2022/08/03 10:48:05;;;;;;;;;;;;;;;32.09;27.75;99617.53;4975970;28;1051;-67
2022/08/03 10:50:43;;;;;;;;;;;;;;;32.31;27.21;99610.47;4976285;28;878;-66
2022/08/03 10:53:09;;;;;;;;;;;;;;;32.39;27.59;99616.25;4975897;28;1907;-67
2022/08/03 10:58:44;;;;;;;;;;;;;;;33.19;26.50;99607.03;4976212;28;664;-69
2022/08/03 11:01:21;;;;;;;;;;;;;;;33.44;26.54;99613.03;4947690;28;1381;-69
2022/08/03 11:04:02;;;;;;;;;;;;;;;33.65;26.02;99623.59;4975790;28;885;-68
2022/08/03 11:09:40;;;;;;;;;;;;;;;33.93;25.82;99614.88;4972832;28;1082;-68
2022/08/03 11:12:20;;;;;;;;;;;;;;;34.20;25.56;99616.63;4976165;28;1882;-68
2022/08/03 11:14:47;;;;;;;;;;;;;;;34.31;25.41;99601.91;4975491;28;827;-69
2022/08/03 11:17:16;;;;;;;;;;;;;;;34.72;25.30;99595.00;4975538;28;847;-68
2022/08/03 11:19:44;;;;;;;;;;;;;;;34.76;24.35;99598.25;4975787;28;827;-68
2022/08/03 11:22:12;;;;;;;;;;;;;;;34.71;24.86;99589.81;4958008;28;1330;-68
2022/08/03 11:24:52;;;;;;;;;;;;;;;34.90;24.99;99592.25;4975411;28;874;-67
2022/08/03 11:27:36;;;;;;;;;;;;;;;35.45;24.37;99585.72;4975459;28;839;-69
2022/08/03 11:30:04;;;;;;;;;;;;;;;35.76;23.53;99592.09;4974212;28;887;-69
2022/08/03 11:32:42;;;;;;;;;;;;;;;35.76;23.28;99585.53;4975166;28;2240;-68
2022/08/03 11:35:10;;;;;;;;;;;;;;;35.97;23.77;99585.97;4993797;28;1269;-68
2022/08/03 11:37:57;;;;;;;;;;;;;;;36.25;23.49;99583.28;4977064;28;1205;-68
2022/08/03 11:40:34;;;;;;;;;;;;;;;36.89;22.81;99583.59;4984502;28;1223;-68
2022/08/03 11:43:06;;;;;;;;;;;;;;;37.35;22.62;99588.81;4994495;28;831;-68
2022/08/03 11:45:35;;;;;;;;;;;;;;;37.29;22.37;99580.41;4994395;28;880;-68
2022/08/03 11:51:23;;;;;;;;;;;;;;;35.82;23.66;99568.06;4994437;28;617;-67
2022/08/03 11:53:56;;;;;;;;;;;;;;;35.91;23.58;99573.19;4994345;28;803;-68
2022/08/03 11:56:22;;;;;;;;;;;;;;;36.58;23.00;99573.16;4994477;28;863;-67
2022/08/03 12:02:07;;;;;;;;;;;;;;;36.70;22.30;99575.56;4994103;28;619;-68
2022/08/03 12:16:51;;;;;;;;;;;;;;;36.11;22.82;99577.81;4993954;28;625;-68
2022/08/03 12:19:18;;;;;;;;;;;;;;;36.67;21.59;99580.38;4993749;28;885;-68
2022/08/03 12:21:50;;;;;;;;;;;;;;;37.44;21.40;99576.56;4976368;28;1138;-67
2022/08/03 12:24:16;;;;;;;;;;;;;;;37.98;20.32;99575.75;4993633;28;894;-68
2022/08/03 12:29:53;;;;;;;;;;;;;;;38.76;19.81;99579.59;4986151;28;1169;-68
2022/08/03 12:32:21;;;;;;;;;;;;;;;39.22;19.26;99554.81;4993428;28;1961;-68
2022/08/03 12:34:50;;;;;;;;;;;;;;;39.39;19.47;99569.09;4993321;28;1266;-67
2022/08/03 12:37:22;;;;;;;;;;;;;;;37.28;21.37;99573.16;4993461;28;861;-69
2022/08/03 12:39:52;;;;;;;;;;;;;;;35.35;23.27;99565.47;4993457;28;854;-69
2022/08/03 12:42:40;;;;;;;;;;;;;;;34.27;24.18;99573.63;4975691;28;1267;-66
2022/08/03 12:45:19;;;;;;;;;;;;;;;35.42;22.89;99569.66;4975900;28;1105;-69
2022/08/03 12:47:55;;;;;;;;;;;;;;;34.90;23.47;99561.44;4993253;28;1047;-67
2022/08/03 12:50:25;;;;;;;;;;;;;;;35.71;23.00;99558.56;4993294;28;913;-67
2022/08/03 12:52:51;;;;;;;;;;;;;;;37.31;21.99;99559.66;4993363;28;1919;-70
2022/08/03 12:55:32;;;;;;;;;;;;;;;38.45;20.97;99564.97;4993223;28;838;-70
2022/08/03 12:58:06;;;;;;;;;;;;;;;37.40;20.73;99565.47;4975593;28;1060;-70
2022/08/03 13:00:33;;;;;;;;;;;;;;;37.59;20.98;99555.44;4992950;28;803;-68
2022/08/03 13:03:01;;;;;;;;;;;;;;;38.57;20.14;99559.38;4993207;28;826;-68
2022/08/03 13:05:28;;;;;;;;;;;;;;;39.08;19.69;99548.00;4992940;28;819;-68
2022/08/03 13:07:55;;;;;;;;;;;;;;;37.42;21.01;99562.00;4992975;28;803;-70
2022/08/03 13:10:31;;;;;;;;;;;;;;;35.05;22.79;99551.25;4992831;28;850;-68
2022/08/03 13:12:59;;;;;;;;;;;;;;;33.41;24.69;99567.56;4992836;28;1953;-68
2022/08/03 13:15:35;;;;;;;;;;;;;;;32.52;26.10;99563.91;4992768;28;799;-68
2022/08/03 13:18:01;;;;;;;;;;;;;;;32.04;26.83;99554.78;4992690;28;823;-70
2022/08/03 13:20:28;;;;;;;;;;;;;;;31.72;26.64;99550.09;4992729;28;869;-68
2022/08/03 13:22:55;;;;;;;;;;;;;;;31.52;26.95;99551.63;4992633;28;859;-68
2022/08/03 13:25:22;;;;;;;;;;;;;;;32.91;26.35;99548.47;4992618;28;882;-68
2022/08/03 13:27:49;;;;;;;;;;;;;;;33.44;25.42;99550.03;4992608;28;831;-69
2022/08/03 13:30:16;;;;;;;;;;;;;;;32.71;26.20;99550.13;4992458;28;849;-68
2022/08/03 13:32:43;;;;;;;;;;;;;;;32.50;25.98;99547.28;4992526;28;1886;-70
2022/08/03 13:35:10;;;;;;;;;;;;;;;33.80;25.12;99552.00;4992286;28;1421;-70
2022/08/03 13:37:37;;;;;;;;;;;;;;;35.91;23.38;99539.44;4992500;28;901;-70
2022/08/03 13:40:04;;;;;;;;;;;;;;;37.52;22.39;99541.88;4992341;28;847;-70
2022/08/03 13:42:31;;;;;;;;;;;;;;;38.58;20.84;99537.81;4992408;28;842;-68
2022/08/03 13:44:59;;;;;;;;;;;;;;;39.35;20.68;99562.22;4974847;28;930;-68
2022/08/03 13:47:26;;;;;;;;;;;;;;;38.81;19.87;99566.22;4992333;28;807;-68
2022/08/03 13:49:52;;;;;;;;;;;;;;;36.70;21.06;99553.31;4992256;28;850;-68
2022/08/03 13:52:19;;;;;;;;;;;;;;;35.21;22.60;99554.81;4992180;28;1910;-69
2022/08/03 13:54:46;;;;;;;;;;;;;;;33.87;24.48;99556.97;4991763;28;843;-69
2022/08/03 13:57:13;;;;;;;;;;;;;;;33.14;25.21;99562.91;4974692;28;1201;-69
2022/08/03 13:59:39;;;;;;;;;;;;;;;34.72;23.85;99549.09;4992160;28;930;-70
2022/08/03 14:02:05;;;;;;;;;;;;;;;36.49;22.08;99545.06;4992213;28;870;-70
2022/08/03 14:04:32;;;;;;;;;;;;;;;37.77;21.15;99550.38;4992102;28;858;-69
2022/08/03 14:06:59;;;;;;;;;;;;;;;38.05;21.23;99548.97;4992229;28;882;-69
2022/08/03 14:09:26;;;;;;;;;;;;;;;35.83;26.23;99560.97;4992051;28;922;-69
2022/08/03 14:11:53;;;;;;;;;;;;;;;33.20;30.86;99562.72;4991983;28;1944;-69
2022/08/03 14:14:21;;;;;;;;;;;;;;;32.60;33.43;99566.81;4992395;28;863;-69
2022/08/03 14:16:48;;;;;;;;;;;;;;;31.97;35.06;99558.31;4991991;28;865;-68
2022/08/03 14:19:14;;;;;;;;;;;;;;;32.34;34.58;99555.00;4992009;28;862;-69
2022/08/03 14:21:41;;;;;;;;;;;;;;;33.32;33.48;99561.06;4992048;28;888;-70
2022/08/03 14:24:08;;;;;;;;;;;;;;;33.68;33.07;99557.34;4991927;28;787;-69
2022/08/03 14:26:35;;;;;;;;;;;;;;;33.85;33.22;99559.66;4992009;28;912;-68
2022/08/03 14:29:03;;;;;;;;;;;;;;;33.72;32.93;99552.00;4991857;28;859;-69
2022/08/03 14:31:29;;;;;;;;;;;;;;;33.58;32.68;99546.97;4974393;28;1949;-71
2022/08/03 14:33:56;;;;;;;;;;;;;;;33.66;32.34;99539.97;4991831;28;1196;-69
2022/08/03 14:36:22;;;;;;;;;;;;;;;33.68;32.53;99542.25;4991848;28;814;-67
2022/08/03 14:38:49;;;;;;;;;;;;;;;33.81;32.49;99542.06;4991888;28;815;-67